sensor_id;sensor_type;location;lat;lon;timestamp;P1;durP1;ratioP1;P2;durP2;ratioP2
58384;SDS011;44185;47.844;8.966;2022-07-29T00:02:17;6.70;;;4.30;;
58384;SDS011;44185;47.844;8.966;2022-07-29T00:04:43;7.78;;;4.15;;
58384;SDS011;44185;47.844;8.966;2022-07-29T00:07:08;7.63;;;4.35;;
58384;SDS011;44185;47.844;8.966;2022-07-29T00:09:34;6.65;;;4.50;;
58384;SDS011;44185;47.844;8.966;2022-07-29T00:12:00;5.68;;;4.25;;
58384;SDS011;44185;47.844;8.966;2022-07-29T00:14:26;5.90;;;4.18;;
58384;SDS011;44185;47.844;8.966;2022-07-29T00:16:52;6.60;;;4.57;;
58384;SDS011;44185;47.844;8.966;2022-07-29T00:19:19;6.60;;;4.47;;
58384;SDS011;44185;47.844;8.966;2022-07-29T00:21:44;7.28;;;4.40;;
58384;SDS011;44185;47.844;8.966;2022-07-29T00:24:10;5.70;;;3.97;;
58384;SDS011;44185;47.844;8.966;2022-07-29T00:26:35;6.70;;;4.32;;
58384;SDS011;44185;47.844;8.966;2022-07-29T00:29:02;6.95;;;4.57;;
58384;SDS011;44185;47.844;8.966;2022-07-29T00:31:29;6.30;;;4.05;;
58384;SDS011;44185;47.844;8.966;2022-07-29T00:33:55;5.85;;;3.70;;
58384;SDS011;44185;47.844;8.966;2022-07-29T00:36:22;4.88;;;3.53;;
58384;SDS011;44185;47.844;8.966;2022-07-29T00:38:47;5.55;;;3.88;;
58384;SDS011;44185;47.844;8.966;2022-07-29T00:41:13;4.47;;;3.88;;
58384;SDS011;44185;47.844;8.966;2022-07-29T00:43:39;6.97;;;3.92;;
58384;SDS011;44185;47.844;8.966;2022-07-29T00:46:05;9.13;;;4.03;;
58384;SDS011;44185;47.844;8.966;2022-07-29T00:48:31;7.80;;;4.30;;
58384;SDS011;44185;47.844;8.966;2022-07-29T00:50:56;5.07;;;3.97;;
58384;SDS011;44185;47.844;8.966;2022-07-29T00:53:24;7.40;;;4.18;;
58384;SDS011;44185;47.844;8.966;2022-07-29T00:55:50;6.32;;;4.22;;
58384;SDS011;44185;47.844;8.966;2022-07-29T00:58:15;5.93;;;3.65;;
58384;SDS011;44185;47.844;8.966;2022-07-29T01:00:41;6.68;;;3.80;;
58384;SDS011;44185;47.844;8.966;2022-07-29T01:03:07;4.93;;;4.25;;
58384;SDS011;44185;47.844;8.966;2022-07-29T01:05:33;7.28;;;3.92;;
58384;SDS011;44185;47.844;8.966;2022-07-29T01:07:59;5.10;;;3.88;;
58384;SDS011;44185;47.844;8.966;2022-07-29T01:10:28;6.72;;;4.22;;
58384;SDS011;44185;47.844;8.966;2022-07-29T01:12:56;7.00;;;4.18;;
58384;SDS011;44185;47.844;8.966;2022-07-29T01:15:23;7.38;;;3.88;;
58384;SDS011;44185;47.844;8.966;2022-07-29T01:17:51;6.15;;;3.63;;
58384;SDS011;44185;47.844;8.966;2022-07-29T01:20:24;5.75;;;3.90;;
58384;SDS011;44185;47.844;8.966;2022-07-29T01:26:00;5.68;;;3.30;;
58384;SDS011;44185;47.844;8.966;2022-07-29T01:28:51;6.35;;;3.30;;
58384;SDS011;44185;47.844;8.966;2022-07-29T01:31:28;4.80;;;3.30;;
58384;SDS011;44185;47.844;8.966;2022-07-29T01:34:02;5.68;;;3.78;;
58384;SDS011;44185;47.844;8.966;2022-07-29T01:36:31;5.60;;;3.47;;
58384;SDS011;44185;47.844;8.966;2022-07-29T01:39:02;3.92;;;3.40;;
58384;SDS011;44185;47.844;8.966;2022-07-29T01:41:34;4.57;;;3.22;;
58384;SDS011;44185;47.844;8.966;2022-07-29T01:44:07;6.63;;;3.10;;
58384;SDS011;44185;47.844;8.966;2022-07-29T01:46:38;4.15;;;3.40;;
58384;SDS011;44185;47.844;8.966;2022-07-29T01:49:08;5.87;;;3.50;;
58384;SDS011;44185;47.844;8.966;2022-07-29T01:51:38;6.13;;;3.70;;
58384;SDS011;44185;47.844;8.966;2022-07-29T01:54:10;4.95;;;3.53;;
58384;SDS011;44185;47.844;8.966;2022-07-29T01:56:42;6.05;;;3.42;;
58384;SDS011;44185;47.844;8.966;2022-07-29T01:59:11;6.70;;;3.30;;
58384;SDS011;44185;47.844;8.966;2022-07-29T02:01:37;4.75;;;3.20;;
58384;SDS011;44185;47.844;8.966;2022-07-29T02:04:06;4.88;;;3.47;;
58384;SDS011;44185;47.844;8.966;2022-07-29T02:06:34;5.97;;;3.53;;
58384;SDS011;44185;47.844;8.966;2022-07-29T02:09:02;8.63;;;3.72;;
58384;SDS011;44185;47.844;8.966;2022-07-29T02:11:29;4.68;;;3.33;;
58384;SDS011;44185;47.844;8.966;2022-07-29T02:13:56;7.47;;;3.60;;
58384;SDS011;44185;47.844;8.966;2022-07-29T02:16:24;7.53;;;3.60;;
58384;SDS011;44185;47.844;8.966;2022-07-29T02:18:53;3.35;;;2.88;;
58384;SDS011;44185;47.844;8.966;2022-07-29T02:21:21;5.97;;;3.90;;
58384;SDS011;44185;47.844;8.966;2022-07-29T02:23:49;6.47;;;4.00;;
58384;SDS011;44185;47.844;8.966;2022-07-29T02:26:17;5.22;;;3.50;;
58384;SDS011;44185;47.844;8.966;2022-07-29T02:28:44;5.88;;;3.67;;
58384;SDS011;44185;47.844;8.966;2022-07-29T02:31:10;6.75;;;3.88;;
58384;SDS011;44185;47.844;8.966;2022-07-29T02:33:39;5.15;;;3.70;;
58384;SDS011;44185;47.844;8.966;2022-07-29T02:36:06;6.18;;;3.58;;
58384;SDS011;44185;47.844;8.966;2022-07-29T02:38:32;6.53;;;4.00;;
58384;SDS011;44185;47.844;8.966;2022-07-29T02:41:01;5.60;;;4.00;;
58384;SDS011;44185;47.844;8.966;2022-07-29T02:43:30;4.95;;;3.53;;
58384;SDS011;44185;47.844;8.966;2022-07-29T02:45:58;5.68;;;3.90;;
58384;SDS011;44185;47.844;8.966;2022-07-29T02:48:27;4.95;;;3.58;;
58384;SDS011;44185;47.844;8.966;2022-07-29T02:51:04;6.95;;;3.45;;
58384;SDS011;44185;47.844;8.966;2022-07-29T02:53:32;4.70;;;3.58;;
58384;SDS011;44185;47.844;8.966;2022-07-29T02:56:00;8.60;;;4.00;;
58384;SDS011;44185;47.844;8.966;2022-07-29T02:58:32;6.65;;;4.20;;
58384;SDS011;44185;47.844;8.966;2022-07-29T03:00:59;7.00;;;4.30;;
58384;SDS011;44185;47.844;8.966;2022-07-29T03:03:28;7.03;;;4.25;;
58384;SDS011;44185;47.844;8.966;2022-07-29T03:05:55;7.70;;;4.50;;
58384;SDS011;44185;47.844;8.966;2022-07-29T03:08:24;9.32;;;5.00;;
58384;SDS011;44185;47.844;8.966;2022-07-29T03:10:51;7.07;;;4.30;;
58384;SDS011;44185;47.844;8.966;2022-07-29T03:13:18;6.47;;;4.30;;
58384;SDS011;44185;47.844;8.966;2022-07-29T03:15:44;8.27;;;4.50;;
58384;SDS011;44185;47.844;8.966;2022-07-29T03:18:10;8.15;;;4.70;;
58384;SDS011;44185;47.844;8.966;2022-07-29T03:20:37;9.18;;;4.68;;
58384;SDS011;44185;47.844;8.966;2022-07-29T03:23:03;6.63;;;4.47;;
58384;SDS011;44185;47.844;8.966;2022-07-29T03:25:30;7.05;;;4.30;;
58384;SDS011;44185;47.844;8.966;2022-07-29T03:27:55;7.88;;;4.90;;
58384;SDS011;44185;47.844;8.966;2022-07-29T03:30:21;7.88;;;4.53;;
58384;SDS011;44185;47.844;8.966;2022-07-29T03:32:47;9.02;;;4.70;;
58384;SDS011;44185;47.844;8.966;2022-07-29T03:35:13;7.57;;;4.38;;
58384;SDS011;44185;47.844;8.966;2022-07-29T03:37:38;7.34;;;4.64;;
58384;SDS011;44185;47.844;8.966;2022-07-29T03:40:05;8.18;;;4.55;;
58384;SDS011;44185;47.844;8.966;2022-07-29T03:42:35;7.80;;;4.75;;
58384;SDS011;44185;47.844;8.966;2022-07-29T03:45:04;7.57;;;4.93;;
58384;SDS011;44185;47.844;8.966;2022-07-29T03:47:32;6.57;;;4.40;;
58384;SDS011;44185;47.844;8.966;2022-07-29T03:50:00;5.65;;;3.97;;
58384;SDS011;44185;47.844;8.966;2022-07-29T03:52:29;7.40;;;4.40;;
58384;SDS011;44185;47.844;8.966;2022-07-29T03:54:55;6.75;;;4.38;;
58384;SDS011;44185;47.844;8.966;2022-07-29T03:57:22;6.57;;;4.07;;
58384;SDS011;44185;47.844;8.966;2022-07-29T03:59:53;6.00;;;3.83;;
58384;SDS011;44185;47.844;8.966;2022-07-29T04:02:19;5.30;;;3.83;;
58384;SDS011;44185;47.844;8.966;2022-07-29T04:04:45;8.32;;;4.78;;
58384;SDS011;44185;47.844;8.966;2022-07-29T04:07:11;9.75;;;4.30;;
58384;SDS011;44185;47.844;8.966;2022-07-29T04:09:37;7.10;;;4.50;;
58384;SDS011;44185;47.844;8.966;2022-07-29T04:12:03;8.35;;;4.18;;
58384;SDS011;44185;47.844;8.966;2022-07-29T04:14:29;6.97;;;4.35;;
58384;SDS011;44185;47.844;8.966;2022-07-29T04:16:56;7.43;;;4.45;;
58384;SDS011;44185;47.844;8.966;2022-07-29T04:19:22;6.03;;;4.10;;
58384;SDS011;44185;47.844;8.966;2022-07-29T04:21:47;7.25;;;4.70;;
58384;SDS011;44185;47.844;8.966;2022-07-29T04:24:13;8.38;;;5.25;;
58384;SDS011;44185;47.844;8.966;2022-07-29T04:26:38;6.70;;;5.00;;
58384;SDS011;44185;47.844;8.966;2022-07-29T04:29:04;7.03;;;4.20;;
58384;SDS011;44185;47.844;8.966;2022-07-29T04:31:29;6.75;;;4.30;;
58384;SDS011;44185;47.844;8.966;2022-07-29T04:33:56;7.68;;;4.35;;
58384;SDS011;44185;47.844;8.966;2022-07-29T04:36:22;7.15;;;4.53;;
58384;SDS011;44185;47.844;8.966;2022-07-29T04:38:47;6.93;;;4.68;;
58384;SDS011;44185;47.844;8.966;2022-07-29T04:41:13;6.32;;;4.40;;
58384;SDS011;44185;47.844;8.966;2022-07-29T04:43:38;8.27;;;4.70;;
58384;SDS011;44185;47.844;8.966;2022-07-29T04:46:05;5.82;;;4.10;;
58384;SDS011;44185;47.844;8.966;2022-07-29T04:48:31;6.85;;;4.68;;
58384;SDS011;44185;47.844;8.966;2022-07-29T04:50:58;5.85;;;4.05;;
58384;SDS011;44185;47.844;8.966;2022-07-29T04:53:24;5.70;;;3.90;;
58384;SDS011;44185;47.844;8.966;2022-07-29T04:55:49;7.75;;;4.32;;
58384;SDS011;44185;47.844;8.966;2022-07-29T04:58:15;6.30;;;4.15;;
58384;SDS011;44185;47.844;8.966;2022-07-29T05:00:40;7.40;;;4.15;;
58384;SDS011;44185;47.844;8.966;2022-07-29T05:03:06;5.47;;;4.05;;
58384;SDS011;44185;47.844;8.966;2022-07-29T05:05:31;7.38;;;3.95;;
58384;SDS011;44185;47.844;8.966;2022-07-29T05:07:58;8.57;;;4.32;;
58384;SDS011;44185;47.844;8.966;2022-07-29T05:10:24;7.93;;;4.57;;
58384;SDS011;44185;47.844;8.966;2022-07-29T05:12:49;8.30;;;4.80;;
58384;SDS011;44185;47.844;8.966;2022-07-29T05:15:15;7.63;;;4.88;;
58384;SDS011;44185;47.844;8.966;2022-07-29T05:17:40;8.30;;;5.03;;
58384;SDS011;44185;47.844;8.966;2022-07-29T05:20:06;6.47;;;4.50;;
58384;SDS011;44185;47.844;8.966;2022-07-29T05:22:32;6.55;;;4.35;;
58384;SDS011;44185;47.844;8.966;2022-07-29T05:24:59;6.95;;;4.03;;
58384;SDS011;44185;47.844;8.966;2022-07-29T05:27:25;8.65;;;4.68;;
58384;SDS011;44185;47.844;8.966;2022-07-29T05:29:50;8.68;;;4.30;;
58384;SDS011;44185;47.844;8.966;2022-07-29T05:32:16;9.38;;;4.53;;
58384;SDS011;44185;47.844;8.966;2022-07-29T05:34:42;6.63;;;4.15;;
58384;SDS011;44185;47.844;8.966;2022-07-29T05:37:08;8.15;;;4.10;;
58384;SDS011;44185;47.844;8.966;2022-07-29T05:39:34;6.38;;;4.03;;
58384;SDS011;44185;47.844;8.966;2022-07-29T05:42:00;6.13;;;4.00;;
58384;SDS011;44185;47.844;8.966;2022-07-29T05:44:26;5.95;;;3.95;;
58384;SDS011;44185;47.844;8.966;2022-07-29T05:46:51;7.63;;;4.47;;
58384;SDS011;44185;47.844;8.966;2022-07-29T05:49:17;6.82;;;4.47;;
58384;SDS011;44185;47.844;8.966;2022-07-29T05:51:42;6.57;;;4.57;;
58384;SDS011;44185;47.844;8.966;2022-07-29T05:54:08;5.90;;;4.22;;
58384;SDS011;44185;47.844;8.966;2022-07-29T05:56:35;5.90;;;4.32;;
58384;SDS011;44185;47.844;8.966;2022-07-29T05:59:02;6.30;;;4.13;;
58384;SDS011;44185;47.844;8.966;2022-07-29T06:01:27;7.43;;;4.20;;
58384;SDS011;44185;47.844;8.966;2022-07-29T06:03:53;5.47;;;4.10;;
58384;SDS011;44185;47.844;8.966;2022-07-29T06:06:19;6.38;;;4.10;;
58384;SDS011;44185;47.844;8.966;2022-07-29T06:08:44;6.68;;;4.00;;
58384;SDS011;44185;47.844;8.966;2022-07-29T06:11:10;6.18;;;4.20;;
58384;SDS011;44185;47.844;8.966;2022-07-29T06:13:35;8.48;;;4.40;;
58384;SDS011;44185;47.844;8.966;2022-07-29T06:16:02;6.35;;;4.18;;
58384;SDS011;44185;47.844;8.966;2022-07-29T06:18:28;6.35;;;4.28;;
58384;SDS011;44185;47.844;8.966;2022-07-29T06:20:53;6.45;;;4.45;;
58384;SDS011;44185;47.844;8.966;2022-07-29T06:23:19;6.25;;;4.38;;
58384;SDS011;44185;47.844;8.966;2022-07-29T06:25:45;7.53;;;5.00;;
58384;SDS011;44185;47.844;8.966;2022-07-29T06:28:11;7.15;;;4.15;;
58384;SDS011;44185;47.844;8.966;2022-07-29T06:30:37;6.60;;;3.90;;
58384;SDS011;44185;47.844;8.966;2022-07-29T06:33:03;5.25;;;3.72;;
58384;SDS011;44185;47.844;8.966;2022-07-29T06:35:29;5.65;;;3.47;;
58384;SDS011;44185;47.844;8.966;2022-07-29T06:37:55;4.57;;;3.60;;
58384;SDS011;44185;47.844;8.966;2022-07-29T06:40:20;5.60;;;3.78;;
58384;SDS011;44185;47.844;8.966;2022-07-29T06:42:46;6.53;;;3.75;;
58384;SDS011;44185;47.844;8.966;2022-07-29T06:45:11;6.30;;;3.80;;
58384;SDS011;44185;47.844;8.966;2022-07-29T06:47:37;5.97;;;4.10;;
58384;SDS011;44185;47.844;8.966;2022-07-29T06:50:04;6.57;;;4.20;;
58384;SDS011;44185;47.844;8.966;2022-07-29T06:52:30;7.70;;;4.75;;
58384;SDS011;44185;47.844;8.966;2022-07-29T06:54:55;7.35;;;4.90;;
58384;SDS011;44185;47.844;8.966;2022-07-29T06:57:21;8.20;;;4.78;;
58384;SDS011;44185;47.844;8.966;2022-07-29T06:59:46;6.97;;;4.88;;
58384;SDS011;44185;47.844;8.966;2022-07-29T07:02:12;7.90;;;4.75;;
58384;SDS011;44185;47.844;8.966;2022-07-29T07:04:37;11.90;;;5.50;;
58384;SDS011;44185;47.844;8.966;2022-07-29T07:07:04;10.43;;;5.63;;
58384;SDS011;44185;47.844;8.966;2022-07-29T07:09:30;14.18;;;5.55;;
58384;SDS011;44185;47.844;8.966;2022-07-29T07:11:55;13.05;;;6.53;;
58384;SDS011;44185;47.844;8.966;2022-07-29T07:14:21;12.75;;;6.40;;
58384;SDS011;44185;47.844;8.966;2022-07-29T07:16:46;14.23;;;7.05;;
58384;SDS011;44185;47.844;8.966;2022-07-29T07:19:11;12.90;;;6.10;;
58384;SDS011;44185;47.844;8.966;2022-07-29T07:21:37;12.05;;;6.20;;
58384;SDS011;44185;47.844;8.966;2022-07-29T07:24:04;11.93;;;6.47;;
58384;SDS011;44185;47.844;8.966;2022-07-29T07:26:30;12.00;;;6.82;;
58384;SDS011;44185;47.844;8.966;2022-07-29T07:28:56;10.32;;;5.60;;
58384;SDS011;44185;47.844;8.966;2022-07-29T07:31:21;15.45;;;5.97;;
58384;SDS011;44185;47.844;8.966;2022-07-29T07:33:47;11.98;;;5.75;;
58384;SDS011;44185;47.844;8.966;2022-07-29T07:36:12;11.07;;;5.03;;
58384;SDS011;44185;47.844;8.966;2022-07-29T07:38:38;12.52;;;5.25;;
58384;SDS011;44185;47.844;8.966;2022-07-29T07:41:05;14.02;;;5.60;;
58384;SDS011;44185;47.844;8.966;2022-07-29T07:43:30;11.77;;;5.53;;
58384;SDS011;44185;47.844;8.966;2022-07-29T07:45:56;11.05;;;4.97;;
58384;SDS011;44185;47.844;8.966;2022-07-29T07:48:22;14.93;;;5.07;;
58384;SDS011;44185;47.844;8.966;2022-07-29T07:50:47;13.13;;;5.25;;
58384;SDS011;44185;47.844;8.966;2022-07-29T07:53:13;14.30;;;4.90;;
58384;SDS011;44185;47.844;8.966;2022-07-29T07:55:39;12.85;;;5.07;;
58384;SDS011;44185;47.844;8.966;2022-07-29T07:58:07;9.07;;;4.68;;
58384;SDS011;44185;47.844;8.966;2022-07-29T08:00:33;12.88;;;4.65;;
58384;SDS011;44185;47.844;8.966;2022-07-29T08:02:58;8.65;;;4.80;;
58384;SDS011;44185;47.844;8.966;2022-07-29T08:05:24;7.53;;;3.90;;
58384;SDS011;44185;47.844;8.966;2022-07-29T08:07:49;8.48;;;4.55;;
58384;SDS011;44185;47.844;8.966;2022-07-29T08:10:15;7.07;;;4.32;;
58384;SDS011;44185;47.844;8.966;2022-07-29T08:12:41;6.63;;;4.40;;
58384;SDS011;44185;47.844;8.966;2022-07-29T08:15:08;6.72;;;4.38;;
58384;SDS011;44185;47.844;8.966;2022-07-29T08:17:34;6.97;;;4.60;;
58384;SDS011;44185;47.844;8.966;2022-07-29T08:19:59;5.82;;;4.18;;
58384;SDS011;44185;47.844;8.966;2022-07-29T08:22:25;8.55;;;4.38;;
58384;SDS011;44185;47.844;8.966;2022-07-29T08:24:50;7.93;;;4.07;;
58384;SDS011;44185;47.844;8.966;2022-07-29T08:27:16;7.40;;;4.22;;
58384;SDS011;44185;47.844;8.966;2022-07-29T08:29:41;7.38;;;4.82;;
58384;SDS011;44185;47.844;8.966;2022-07-29T08:32:11;8.13;;;4.05;;
58384;SDS011;44185;47.844;8.966;2022-07-29T08:34:36;5.22;;;3.95;;
58384;SDS011;44185;47.844;8.966;2022-07-29T08:37:02;9.57;;;4.30;;
58384;SDS011;44185;47.844;8.966;2022-07-29T08:39:27;7.75;;;4.43;;
58384;SDS011;44185;47.844;8.966;2022-07-29T08:41:53;6.70;;;4.20;;
58384;SDS011;44185;47.844;8.966;2022-07-29T08:44:19;5.78;;;3.90;;
58384;SDS011;44185;47.844;8.966;2022-07-29T08:46:44;6.32;;;4.18;;
58384;SDS011;44185;47.844;8.966;2022-07-29T08:49:11;6.82;;;3.63;;
58384;SDS011;44185;47.844;8.966;2022-07-29T08:51:38;6.90;;;3.80;;
58384;SDS011;44185;47.844;8.966;2022-07-29T08:54:05;6.80;;;3.97;;
58384;SDS011;44185;47.844;8.966;2022-07-29T08:56:31;6.40;;;4.20;;
58384;SDS011;44185;47.844;8.966;2022-07-29T08:58:57;6.53;;;3.92;;
58384;SDS011;44185;47.844;8.966;2022-07-29T09:01:27;5.85;;;4.05;;
58384;SDS011;44185;47.844;8.966;2022-07-29T09:03:54;10.05;;;4.00;;
58384;SDS011;44185;47.844;8.966;2022-07-29T09:06:22;6.68;;;3.80;;
58384;SDS011;44185;47.844;8.966;2022-07-29T09:08:49;6.10;;;4.10;;
58384;SDS011;44185;47.844;8.966;2022-07-29T09:11:15;7.07;;;4.07;;
58384;SDS011;44185;47.844;8.966;2022-07-29T09:13:40;8.73;;;4.40;;
58384;SDS011;44185;47.844;8.966;2022-07-29T09:16:06;7.75;;;4.38;;
58384;SDS011;44185;47.844;8.966;2022-07-29T09:18:35;8.52;;;3.83;;
58384;SDS011;44185;47.844;8.966;2022-07-29T09:23:29;4.85;;;3.78;;
58384;SDS011;44185;47.844;8.966;2022-07-29T09:25:54;7.43;;;4.22;;
58384;SDS011;44185;47.844;8.966;2022-07-29T09:28:20;10.00;;;4.32;;
58384;SDS011;44185;47.844;8.966;2022-07-29T09:30:51;7.10;;;4.03;;
58384;SDS011;44185;47.844;8.966;2022-07-29T09:33:18;7.93;;;3.90;;
58384;SDS011;44185;47.844;8.966;2022-07-29T09:35:43;11.18;;;4.50;;
58384;SDS011;44185;47.844;8.966;2022-07-29T09:38:09;10.38;;;5.00;;
58384;SDS011;44185;47.844;8.966;2022-07-29T09:40:37;9.10;;;3.92;;
58384;SDS011;44185;47.844;8.966;2022-07-29T09:43:09;7.63;;;3.70;;
58384;SDS011;44185;47.844;8.966;2022-07-29T09:45:35;9.13;;;4.50;;
58384;SDS011;44185;47.844;8.966;2022-07-29T09:48:12;8.75;;;4.00;;
58384;SDS011;44185;47.844;8.966;2022-07-29T09:50:39;10.00;;;4.10;;
58384;SDS011;44185;47.844;8.966;2022-07-29T09:53:06;10.32;;;4.70;;
58384;SDS011;44185;47.844;8.966;2022-07-29T09:55:32;10.80;;;4.43;;
58384;SDS011;44185;47.844;8.966;2022-07-29T10:00:43;10.82;;;4.18;;
58384;SDS011;44185;47.844;8.966;2022-07-29T10:03:09;13.85;;;4.55;;
58384;SDS011;44185;47.844;8.966;2022-07-29T10:05:34;11.20;;;4.70;;
58384;SDS011;44185;47.844;8.966;2022-07-29T10:08:00;10.32;;;4.63;;
58384;SDS011;44185;47.844;8.966;2022-07-29T10:10:26;7.82;;;4.00;;
58384;SDS011;44185;47.844;8.966;2022-07-29T10:12:54;10.45;;;4.40;;
58384;SDS011;44185;47.844;8.966;2022-07-29T10:15:23;8.18;;;4.47;;
58384;SDS011;44185;47.844;8.966;2022-07-29T10:17:49;8.05;;;3.97;;
58384;SDS011;44185;47.844;8.966;2022-07-29T10:20:15;7.20;;;3.90;;
58384;SDS011;44185;47.844;8.966;2022-07-29T10:22:41;7.72;;;3.90;;
58384;SDS011;44185;47.844;8.966;2022-07-29T10:25:07;8.17;;;3.83;;
58384;SDS011;44185;47.844;8.966;2022-07-29T10:27:34;6.90;;;3.70;;
58384;SDS011;44185;47.844;8.966;2022-07-29T10:30:00;9.52;;;4.45;;
58384;SDS011;44185;47.844;8.966;2022-07-29T10:32:30;9.60;;;3.83;;
58384;SDS011;44185;47.844;8.966;2022-07-29T10:35:15;6.18;;;3.78;;
58384;SDS011;44185;47.844;8.966;2022-07-29T10:38:02;5.35;;;3.50;;
58384;SDS011;44185;47.844;8.966;2022-07-29T10:40:36;4.88;;;3.88;;
58384;SDS011;44185;47.844;8.966;2022-07-29T10:43:14;5.68;;;3.33;;
58384;SDS011;44185;47.844;8.966;2022-07-29T10:45:44;5.78;;;3.65;;
58384;SDS011;44185;47.844;8.966;2022-07-29T10:48:13;5.32;;;3.60;;
58384;SDS011;44185;47.844;8.966;2022-07-29T10:50:51;7.72;;;3.75;;
58384;SDS011;44185;47.844;8.966;2022-07-29T10:53:18;5.87;;;3.70;;
58384;SDS011;44185;47.844;8.966;2022-07-29T10:55:43;9.27;;;3.80;;
58384;SDS011;44185;47.844;8.966;2022-07-29T10:58:13;7.15;;;3.45;;
58384;SDS011;44185;47.844;8.966;2022-07-29T11:00:40;6.53;;;3.67;;
58384;SDS011;44185;47.844;8.966;2022-07-29T11:03:05;6.55;;;3.70;;
58384;SDS011;44185;47.844;8.966;2022-07-29T11:05:41;6.80;;;3.70;;
58384;SDS011;44185;47.844;8.966;2022-07-29T11:08:23;4.90;;;3.70;;
58384;SDS011;44185;47.844;8.966;2022-07-29T11:10:50;5.82;;;3.72;;
58384;SDS011;44185;47.844;8.966;2022-07-29T11:16:10;7.22;;;4.10;;
58384;SDS011;44185;47.844;8.966;2022-07-29T11:18:35;6.05;;;3.65;;
58384;SDS011;44185;47.844;8.966;2022-07-29T11:21:02;5.40;;;3.60;;
58384;SDS011;44185;47.844;8.966;2022-07-29T11:23:28;6.53;;;3.88;;
58384;SDS011;44185;47.844;8.966;2022-07-29T11:26:13;6.65;;;3.78;;
58384;SDS011;44185;47.844;8.966;2022-07-29T11:28:42;5.53;;;3.90;;
58384;SDS011;44185;47.844;8.966;2022-07-29T11:31:15;5.47;;;4.20;;
58384;SDS011;44185;47.844;8.966;2022-07-29T11:33:42;5.55;;;3.83;;
58384;SDS011;44185;47.844;8.966;2022-07-29T11:36:10;5.47;;;3.83;;
58384;SDS011;44185;47.844;8.966;2022-07-29T11:38:36;8.77;;;3.92;;
58384;SDS011;44185;47.844;8.966;2022-07-29T11:41:21;7.55;;;4.03;;
58384;SDS011;44185;47.844;8.966;2022-07-29T11:43:48;6.95;;;4.25;;
58384;SDS011;44185;47.844;8.966;2022-07-29T11:46:14;5.65;;;3.83;;
58384;SDS011;44185;47.844;8.966;2022-07-29T11:48:41;5.07;;;3.50;;
58384;SDS011;44185;47.844;8.966;2022-07-29T11:51:10;6.15;;;3.90;;
58384;SDS011;44185;47.844;8.966;2022-07-29T11:53:36;8.27;;;4.10;;
58384;SDS011;44185;47.844;8.966;2022-07-29T11:56:02;5.60;;;3.65;;
58384;SDS011;44185;47.844;8.966;2022-07-29T11:58:29;5.97;;;3.85;;
58384;SDS011;44185;47.844;8.966;2022-07-29T12:00:55;7.13;;;3.80;;
58384;SDS011;44185;47.844;8.966;2022-07-29T12:03:23;7.13;;;3.92;;
58384;SDS011;44185;47.844;8.966;2022-07-29T12:05:50;6.25;;;3.80;;
58384;SDS011;44185;47.844;8.966;2022-07-29T12:08:18;6.93;;;3.75;;
58384;SDS011;44185;47.844;8.966;2022-07-29T12:10:45;8.57;;;4.80;;
58384;SDS011;44185;47.844;8.966;2022-07-29T12:13:12;4.93;;;3.50;;
58384;SDS011;44185;47.844;8.966;2022-07-29T12:15:39;4.30;;;3.50;;
58384;SDS011;44185;47.844;8.966;2022-07-29T12:18:12;7.00;;;3.92;;
58384;SDS011;44185;47.844;8.966;2022-07-29T12:20:39;5.18;;;3.50;;
58384;SDS011;44185;47.844;8.966;2022-07-29T12:23:05;4.40;;;3.65;;
58384;SDS011;44185;47.844;8.966;2022-07-29T12:25:33;5.80;;;4.00;;
58384;SDS011;44185;47.844;8.966;2022-07-29T12:27:59;6.45;;;4.00;;
58384;SDS011;44185;47.844;8.966;2022-07-29T12:30:34;5.50;;;3.75;;
58384;SDS011;44185;47.844;8.966;2022-07-29T12:33:10;5.22;;;3.80;;
58384;SDS011;44185;47.844;8.966;2022-07-29T12:35:47;6.15;;;3.67;;
58384;SDS011;44185;47.844;8.966;2022-07-29T12:38:14;8.52;;;3.70;;
58384;SDS011;44185;47.844;8.966;2022-07-29T12:40:41;5.53;;;4.05;;
58384;SDS011;44185;47.844;8.966;2022-07-29T12:43:08;6.40;;;3.55;;
58384;SDS011;44185;47.844;8.966;2022-07-29T12:45:35;4.87;;;3.70;;
58384;SDS011;44185;47.844;8.966;2022-07-29T12:48:01;5.82;;;3.70;;
58384;SDS011;44185;47.844;8.966;2022-07-29T12:50:26;7.43;;;3.70;;
58384;SDS011;44185;47.844;8.966;2022-07-29T12:52:52;4.97;;;3.72;;
58384;SDS011;44185;47.844;8.966;2022-07-29T12:58:09;6.45;;;3.70;;
58384;SDS011;44185;47.844;8.966;2022-07-29T13:00:34;5.28;;;3.55;;
58384;SDS011;44185;47.844;8.966;2022-07-29T13:03:00;8.02;;;3.70;;
58384;SDS011;44185;47.844;8.966;2022-07-29T13:05:38;6.40;;;3.53;;
58384;SDS011;44185;47.844;8.966;2022-07-29T13:08:09;7.63;;;3.60;;
58384;SDS011;44185;47.844;8.966;2022-07-29T13:10:39;7.00;;;4.00;;
58384;SDS011;44185;47.844;8.966;2022-07-29T13:13:06;4.90;;;3.50;;
58384;SDS011;44185;47.844;8.966;2022-07-29T13:15:33;4.37;;;3.27;;
58384;SDS011;44185;47.844;8.966;2022-07-29T13:17:59;4.88;;;3.65;;
58384;SDS011;44185;47.844;8.966;2022-07-29T13:20:25;9.35;;;3.95;;
58384;SDS011;44185;47.844;8.966;2022-07-29T13:22:52;3.92;;;3.53;;
58384;SDS011;44185;47.844;8.966;2022-07-29T13:25:23;5.95;;;3.40;;
58384;SDS011;44185;47.844;8.966;2022-07-29T13:27:49;3.50;;;3.20;;
58384;SDS011;44185;47.844;8.966;2022-07-29T13:30:16;5.63;;;3.42;;
58384;SDS011;44185;47.844;8.966;2022-07-29T13:32:42;4.03;;;3.60;;
58384;SDS011;44185;47.844;8.966;2022-07-29T13:35:08;4.63;;;3.10;;
58384;SDS011;44185;47.844;8.966;2022-07-29T13:37:34;4.55;;;3.60;;
58384;SDS011;44185;47.844;8.966;2022-07-29T13:40:01;5.40;;;3.85;;
58384;SDS011;44185;47.844;8.966;2022-07-29T13:42:27;6.47;;;3.80;;
58384;SDS011;44185;47.844;8.966;2022-07-29T13:44:53;5.20;;;3.90;;
58384;SDS011;44185;47.844;8.966;2022-07-29T13:47:20;5.22;;;3.15;;
58384;SDS011;44185;47.844;8.966;2022-07-29T13:49:46;3.67;;;2.80;;
58384;SDS011;44185;47.844;8.966;2022-07-29T13:52:12;4.05;;;3.45;;
58384;SDS011;44185;47.844;8.966;2022-07-29T13:54:37;3.67;;;3.00;;
58384;SDS011;44185;47.844;8.966;2022-07-29T13:57:04;5.03;;;3.13;;
58384;SDS011;44185;47.844;8.966;2022-07-29T13:59:29;4.50;;;2.85;;
58384;SDS011;44185;47.844;8.966;2022-07-29T14:01:55;5.10;;;3.13;;
58384;SDS011;44185;47.844;8.966;2022-07-29T14:04:22;3.35;;;2.80;;
58384;SDS011;44185;47.844;8.966;2022-07-29T14:06:49;3.78;;;2.90;;
58384;SDS011;44185;47.844;8.966;2022-07-29T14:09:14;3.78;;;2.70;;
58384;SDS011;44185;47.844;8.966;2022-07-29T14:11:40;2.95;;;2.65;;
58384;SDS011;44185;47.844;8.966;2022-07-29T14:14:05;4.03;;;2.83;;
58384;SDS011;44185;47.844;8.966;2022-07-29T14:16:30;4.45;;;3.00;;
58384;SDS011;44185;47.844;8.966;2022-07-29T14:18:56;3.78;;;2.78;;
58384;SDS011;44185;47.844;8.966;2022-07-29T14:21:23;3.40;;;2.88;;
58384;SDS011;44185;47.844;8.966;2022-07-29T14:23:49;3.65;;;2.90;;
58384;SDS011;44185;47.844;8.966;2022-07-29T14:26:14;5.72;;;3.03;;
58384;SDS011;44185;47.844;8.966;2022-07-29T14:28:40;3.83;;;3.00;;
58384;SDS011;44185;47.844;8.966;2022-07-29T14:31:05;3.50;;;2.88;;
58384;SDS011;44185;47.844;8.966;2022-07-29T14:33:31;5.32;;;3.00;;
58384;SDS011;44185;47.844;8.966;2022-07-29T14:35:56;5.82;;;3.50;;
58384;SDS011;44185;47.844;8.966;2022-07-29T14:38:23;6.65;;;3.55;;
58384;SDS011;44185;47.844;8.966;2022-07-29T14:40:49;6.07;;;3.40;;
58384;SDS011;44185;47.844;8.966;2022-07-29T14:43:14;5.88;;;3.50;;
58384;SDS011;44185;47.844;8.966;2022-07-29T14:45:40;5.85;;;4.03;;
58384;SDS011;44185;47.844;8.966;2022-07-29T14:48:06;5.47;;;3.70;;
58384;SDS011;44185;47.844;8.966;2022-07-29T14:50:31;7.88;;;4.10;;
58384;SDS011;44185;47.844;8.966;2022-07-29T14:52:57;4.63;;;3.55;;
58384;SDS011;44185;47.844;8.966;2022-07-29T14:55:24;8.18;;;3.83;;
58384;SDS011;44185;47.844;8.966;2022-07-29T14:57:49;8.38;;;4.60;;
58384;SDS011;44185;47.844;8.966;2022-07-29T15:00:15;8.70;;;5.00;;